createdAt,value
2023-04-16T13:29:23.870Z,6.70
2023-04-16T13:31:50.835Z,7.30
2023-04-16T13:34:17.945Z,8.10
2023-04-16T13:36:48.473Z,6.82
2023-04-16T13:39:16.006Z,7.30
2023-04-16T13:41:42.793Z,6.90
2023-04-16T13:44:09.634Z,7.43
2023-04-16T13:46:36.513Z,6.85
2023-04-16T13:49:04.226Z,6.80
2023-04-16T13:51:32.296Z,6.65
2023-04-16T13:53:59.217Z,6.53
2023-04-16T13:56:26.128Z,5.88
2023-04-16T13:58:53.076Z,6.32
2023-04-16T14:01:20.165Z,6.50
2023-04-16T14:03:47.099Z,6.28
2023-04-16T14:06:15.226Z,6.33
2023-04-16T14:08:42.143Z,5.72
2023-04-16T14:11:09.433Z,5.45
2023-04-16T14:13:36.939Z,5.30
2023-04-16T14:16:04.154Z,5.72
2023-04-16T14:18:31.028Z,5.80
2023-04-16T14:20:58.802Z,5.40
2023-04-16T14:23:26.789Z,5.30
2023-04-16T14:25:54.005Z,5.28
2023-04-16T14:28:21.082Z,6.00
2023-04-16T14:30:47.979Z,5.50
2023-04-16T14:33:14.846Z,5.68
2023-04-16T14:35:41.804Z,5.47
2023-04-16T14:38:08.891Z,5.53
2023-04-16T14:40:36.010Z,5.80
2023-04-16T14:43:02.905Z,5.13
2023-04-16T14:45:31.033Z,6.20
2023-04-16T14:47:58.042Z,5.80
2023-04-16T14:50:25.166Z,5.85
2023-04-16T14:52:53.894Z,5.88
2023-04-16T14:55:21.533Z,6.27
2023-04-16T14:57:48.357Z,5.82
2023-04-16T15:00:17.740Z,5.25
2023-04-16T15:02:46.324Z,5.90
2023-04-16T15:05:13.244Z,6.32
2023-04-16T15:07:40.158Z,5.70
2023-04-16T15:10:09.277Z,5.78
2023-04-16T15:12:36.153Z,6.18
2023-04-16T15:15:03.087Z,6.13
2023-04-16T15:17:29.984Z,6.65
2023-04-16T15:19:56.954Z,6.27
2023-04-16T15:22:23.923Z,6.03
2023-04-16T15:24:51.031Z,5.90
2023-04-16T15:27:18.225Z,5.65
2023-04-16T15:29:49.663Z,5.75
2023-04-16T15:32:16.812Z,6.37
2023-04-16T15:34:43.718Z,6.22
2023-04-16T15:37:10.932Z,6.03
2023-04-16T15:39:37.809Z,6.43
2023-04-16T15:42:07.402Z,7.30
2023-04-16T15:44:34.962Z,6.50
2023-04-16T15:47:01.854Z,6.50
2023-04-16T15:49:28.805Z,6.55
2023-04-16T15:51:56.220Z,7.90
2023-04-16T15:54:23.565Z,6.45
2023-04-16T15:56:51.445Z,8.50
2023-04-16T15:59:18.331Z,8.40
2023-04-16T16:01:45.130Z,12.13
2023-04-16T16:04:12.000Z,7.70
2023-04-16T16:06:38.980Z,7.97
2023-04-16T16:09:06.659Z,9.17
2023-04-16T16:11:33.684Z,7.40
2023-04-16T16:14:03.729Z,8.38
2023-04-16T16:16:31.053Z,7.22
2023-04-16T16:18:57.957Z,7.72
2023-04-16T16:21:24.755Z,7.17
2023-04-16T16:23:51.843Z,7.80
2023-04-16T16:26:18.824Z,8.38
2023-04-16T16:28:46.126Z,8.35
2023-04-16T16:31:12.994Z,7.88
2023-04-16T16:33:40.532Z,7.60
2023-04-16T16:36:10.941Z,8.15
2023-04-16T16:38:38.269Z,8.25
2023-04-16T16:41:05.095Z,7.05
2023-04-16T16:43:31.920Z,6.80
2023-04-16T16:45:58.695Z,7.47
2023-04-16T16:48:25.761Z,8.00
2023-04-16T16:50:52.570Z,7.93
2023-04-16T16:53:19.426Z,7.65
2023-04-16T16:55:46.479Z,7.70
2023-04-16T16:58:13.291Z,7.47
2023-04-16T17:00:40.468Z,7.65
2023-04-16T17:03:09.164Z,7.38
2023-04-16T17:05:36.862Z,7.68
2023-04-16T17:08:03.905Z,7.85
2023-04-16T17:10:30.781Z,7.60
2023-04-16T17:12:57.660Z,7.70
2023-04-16T17:15:24.730Z,8.00
2023-04-16T17:17:51.870Z,7.38
2023-04-16T17:20:20.051Z,8.27
2023-04-16T17:22:47.032Z,7.20
2023-04-16T17:25:13.997Z,7.60
2023-04-16T17:27:40.956Z,7.80
2023-04-16T17:30:08.431Z,7.75
2023-04-16T17:32:35.354Z,8.35
2023-04-16T17:35:04.501Z,7.03
2023-04-16T17:37:31.589Z,7.82
2023-04-16T17:39:58.458Z,8.70
2023-04-16T17:42:25.644Z,7.65
2023-04-16T17:44:52.614Z,8.32
2023-04-16T17:47:19.551Z,7.87
2023-04-16T17:49:46.481Z,8.38
2023-04-16T17:52:13.351Z,8.38
2023-04-16T17:54:40.189Z,8.30
2023-04-16T17:57:06.945Z,7.32
2023-04-16T17:59:33.691Z,7.43
2023-04-16T18:02:00.895Z,8.30
2023-04-16T18:04:28.085Z,7.82
2023-04-16T18:06:55.160Z,8.45
2023-04-16T18:09:22.047Z,7.47
2023-04-16T18:11:49.016Z,7.83
2023-04-16T18:14:20.030Z,8.38
2023-04-16T18:16:49.883Z,8.27
2023-04-16T18:19:16.999Z,8.43
2023-04-16T18:21:44.256Z,9.20
2023-04-16T18:24:11.388Z,8.50
2023-04-16T18:26:40.755Z,8.75
2023-04-16T18:29:08.195Z,8.95
2023-04-16T18:31:36.013Z,8.65
2023-04-16T18:34:03.048Z,10.00
2023-04-16T18:36:29.979Z,10.37
2023-04-16T18:39:15.895Z,10.07
2023-04-16T18:41:43.757Z,9.07
2023-04-16T18:44:13.353Z,10.35
2023-04-16T18:46:40.283Z,9.90
2023-04-16T18:49:07.214Z,10.20
2023-04-16T18:51:34.037Z,9.20
2023-04-16T18:54:00.952Z,9.55
2023-04-16T18:56:29.927Z,9.70
2023-04-16T18:58:56.707Z,9.90
2023-04-16T19:01:23.672Z,10.23
2023-04-16T19:03:50.798Z,10.05
2023-04-16T19:06:17.702Z,9.88
2023-04-16T19:08:44.507Z,11.25
2023-04-16T19:11:11.356Z,10.55
2023-04-16T19:13:39.372Z,10.77
2023-04-16T19:16:11.434Z,10.98
2023-04-16T19:18:38.976Z,10.82
2023-04-16T19:21:07.102Z,10.15
2023-04-16T19:23:34.038Z,9.57
2023-04-16T19:26:01.659Z,9.87
2023-04-16T19:28:28.799Z,10.90
2023-04-16T19:30:56.173Z,10.95
2023-04-16T19:33:23.107Z,10.57
2023-04-16T19:35:50.030Z,10.25
2023-04-16T19:38:16.858Z,9.80
2023-04-16T19:40:45.580Z,9.82
2023-04-16T19:43:12.826Z,10.23
2023-04-16T19:45:53.692Z,9.30
2023-04-16T19:48:21.615Z,9.50
2023-04-16T19:50:48.701Z,10.43
2023-04-16T19:53:17.339Z,9.45
2023-04-16T19:55:44.293Z,9.82
2023-04-16T19:58:11.186Z,10.32
2023-04-16T20:00:40.972Z,10.55
2023-04-16T20:03:07.907Z,10.53
2023-04-16T20:05:34.932Z,10.43
2023-04-16T20:08:01.758Z,10.70
2023-04-16T20:10:29.398Z,10.18
2023-04-16T20:12:56.551Z,10.60
2023-04-16T20:15:23.398Z,9.90
2023-04-16T20:17:50.259Z,10.50
2023-04-16T20:20:17.217Z,10.05
2023-04-16T20:22:44.053Z,10.85
2023-04-16T20:25:11.659Z,9.32
2023-04-16T20:27:38.618Z,11.07
2023-04-16T20:30:06.495Z,11.35
2023-04-16T20:32:33.525Z,10.73
2023-04-16T20:35:00.408Z,9.93
2023-04-16T20:37:29.246Z,10.95
2023-04-16T20:39:56.482Z,11.77
2023-04-16T20:42:26.519Z,11.35
2023-04-16T20:44:56.735Z,11.65
2023-04-16T20:47:23.977Z,10.90
2023-04-16T20:49:52.995Z,11.50
2023-04-16T20:52:20.043Z,11.40
2023-04-16T20:54:47.870Z,11.75
2023-04-16T20:57:14.832Z,12.10
2023-04-16T20:59:41.785Z,11.82
2023-04-16T21:02:08.784Z,11.95
2023-04-16T21:04:36.120Z,11.63
2023-04-16T21:07:04.357Z,11.35
2023-04-16T21:09:31.735Z,11.70
2023-04-16T21:11:58.599Z,11.77
2023-04-16T21:14:25.424Z,11.45
2023-04-16T21:16:52.256Z,11.63
2023-04-16T21:19:19.082Z,12.52
2023-04-16T21:21:45.996Z,12.20
2023-04-16T21:24:12.862Z,10.32
2023-04-16T21:26:39.639Z,10.93
2023-04-16T21:29:06.465Z,11.13
2023-04-16T21:31:33.282Z,10.45
2023-04-16T21:34:00.112Z,10.68
2023-04-16T21:36:27.846Z,10.55
2023-04-16T21:38:55.046Z,9.93
2023-04-16T21:41:21.880Z,11.13
2023-04-16T21:43:48.716Z,11.40
2023-04-16T21:46:15.548Z,11.88
2023-04-16T21:48:42.322Z,11.23
2023-04-16T21:51:10.216Z,11.60
2023-04-16T21:53:39.176Z,11.50
2023-04-16T21:56:06.798Z,10.13
2023-04-16T21:58:33.534Z,10.48
2023-04-16T22:01:00.371Z,10.15
2023-04-16T22:03:28.221Z,10.43
2023-04-16T22:06:01.136Z,11.40
2023-04-16T22:08:29.580Z,10.65
2023-04-16T22:11:01.706Z,10.93
2023-04-16T22:13:32.572Z,11.00
2023-04-16T22:16:02.981Z,10.95
2023-04-16T22:18:33.167Z,12.43
2023-04-16T22:21:00.209Z,11.25
2023-04-16T22:23:27.206Z,11.75
2023-04-16T22:25:55.619Z,11.65
2023-04-16T22:28:22.905Z,11.68
2023-04-16T22:30:50.249Z,12.57
2023-04-16T22:33:17.120Z,11.63
2023-04-16T22:35:43.988Z,11.57
2023-04-16T22:38:10.904Z,12.07
2023-04-16T22:40:37.776Z,11.43
2023-04-16T22:43:05.102Z,11.50
2023-04-16T22:45:31.972Z,11.80
2023-04-16T22:47:59.082Z,11.50
2023-04-16T22:50:26.143Z,11.25
2023-04-16T22:52:52.900Z,12.25
2023-04-16T22:55:19.750Z,12.93
2023-04-16T22:57:47.655Z,12.23
2023-04-16T23:00:18.031Z,12.13
2023-04-16T23:02:45.464Z,12.63
2023-04-16T23:05:12.563Z,13.02
2023-04-16T23:07:39.402Z,13.00
2023-04-16T23:10:08.629Z,12.63
2023-04-16T23:12:37.631Z,13.45
2023-04-16T23:15:06.852Z,13.85
2023-04-16T23:17:35.281Z,13.63
2023-04-16T23:20:02.551Z,12.53
2023-04-16T23:22:29.604Z,12.05
2023-04-16T23:24:56.554Z,12.65
2023-04-16T23:27:23.393Z,13.10
2023-04-16T23:29:50.327Z,13.45
2023-04-16T23:32:17.248Z,13.03
2023-04-16T23:34:44.153Z,12.82
2023-04-16T23:37:10.976Z,13.68
2023-04-16T23:39:37.804Z,13.02
2023-04-16T23:42:04.727Z,14.00
2023-04-16T23:44:31.753Z,12.97
2023-04-16T23:46:58.711Z,13.00
2023-04-16T23:49:25.701Z,13.88
2023-04-16T23:51:52.776Z,12.77
2023-04-16T23:54:19.709Z,12.90
2023-04-16T23:56:46.677Z,12.67
2023-04-16T23:59:14.073Z,13.20
